Observation data for Slaton on 06/25/2019      Previous  Date  Next       Current Mesonet Observations  Soil Data  Daily Summary Page  Observations in Plain Language
KSLS 250500Z 14014G19KT 23/21 A2998 RMK A01 T02260211  RH  094%=      5-min Rain = 0
KSLS 250505Z 14014KT 23/21 A2998 RMK A01 T02250212  RH  095%=      5-min Rain = 0
KSLS 250510Z 14012KT 23/21 A2998 RMK A01 T02250211  RH  095%=      5-min Rain = 0
KSLS 250515Z 15013G18KT 23/21 A2998 RMK A01 T02250211  RH  095%=      5-min Rain = 0
KSLS 250520Z 15014G20KT 23/21 A2998 RMK A01 T02250210  RH  094%=      5-min Rain = 0
KSLS 250525Z 16015G20KT 22/20 A2998 RMK A01 T02240203  RH  090%=      5-min Rain = 0
KSLS 250530Z 17015G20KT 22/20 A2997 RMK A01 T02220195  RH  087%=      5-min Rain = 0
KSLS 250535Z 17018KT 22/18 A2997 RMK A01 T02190176  RH  078%=      5-min Rain = 0
KSLS 250540Z 17016KT 21/17 A2997 RMK A01 T02140168  RH  077%=      5-min Rain = 0
KSLS 250545Z 17014KT 21/17 A2997 RMK A01 T02110166  RH  078%=      5-min Rain = 0
KSLS 250550Z 17014KT 21/16 A2997 RMK A01 T02080164  RH  078%=      5-min Rain = 0
KSLS 250555Z 18012KT 21/16 A2996 RMK A01 T02060164  RH  079%=      5-min Rain = 0
KSLS 250600Z 18011KT 20/16 A2996 RMK A01 T02040164  RH  080%=      5-min Rain = 0
KSLS 250605Z 18012KT 20/16 A2996 RMK A01 T02030162  RH  079%=      5-min Rain = 0
KSLS 250610Z 18012KT 20/16 A2996 RMK A01 T02020161  RH  079%=      5-min Rain = 0
KSLS 250615Z 18013KT 20/16 A2996 RMK A01 T02020160  RH  078%=      5-min Rain = 0
KSLS 250620Z 18013KT 20/16 A2996 RMK A01 T02020158  RH  078%=      5-min Rain = 0
KSLS 250625Z 18012KT 20/16 A2996 RMK A01 T02010157  RH  078%=      5-min Rain = 0
KSLS 250630Z 19011G17KT 20/16 A2995 RMK A01 T01990157  RH  079%=      5-min Rain = 0
KSLS 250635Z 19012KT 20/16 A2996 RMK A01 T01980155  RH  078%=      5-min Rain = 0
KSLS 250640Z 19012KT 20/15 A2996 RMK A01 T01970154  RH  078%=      5-min Rain = 0
KSLS 250645Z 19012KT 20/15 A2996 RMK A01 T01970154  RH  078%=      5-min Rain = 0
KSLS 250650Z 19012KT 20/15 A2996 RMK A01 T01960153  RH  078%=      5-min Rain = 0
KSLS 250655Z 19013KT 20/15 A2996 RMK A01 T01970153  RH  077%=      5-min Rain = 0
KSLS 250700Z 19011KT 20/15 A2996 RMK A01 T01960153  RH  078%=      5-min Rain = 0
KSLS 250705Z 19011KT 19/15 A2996 RMK A01 T01940152  RH  079%=      5-min Rain = 0
KSLS 250710Z 19011KT 19/15 A2996 RMK A01 T01930152  RH  078%=      5-min Rain = 0
KSLS 250715Z 19010KT 19/15 A2996 RMK A01 T01930151  RH  079%=      5-min Rain = 0
KSLS 250720Z 19010KT 19/15 A2996 RMK A01 T01920151  RH  079%=      5-min Rain = 0
KSLS 250725Z 20010KT 19/15 A2996 RMK A01 T01900152  RH  080%=      5-min Rain = 0
KSLS 250730Z 20010KT 19/15 A2996 RMK A01 T01890151  RH  080%=      5-min Rain = 0
KSLS 250735Z 19009KT 19/15 A2996 RMK A01 T01880152  RH  081%=      5-min Rain = 0
KSLS 250740Z 20009KT 19/15 A2996 RMK A01 T01860152  RH  082%=      5-min Rain = 0
KSLS 250745Z 20009KT 19/15 A2996 RMK A01 T01850153  RH  083%=      5-min Rain = 0
KSLS 250750Z 20010KT 18/15 A2996 RMK A01 T01840153  RH  084%=      5-min Rain = 0
KSLS 250755Z 20011KT 18/15 A2996 RMK A01 T01840152  RH  083%=      5-min Rain = 0
KSLS 250800Z 21011KT 19/15 A2995 RMK A01 T01860152  RH  083%=      5-min Rain = 0
KSLS 250805Z 20011KT 19/15 A2995 RMK A01 T01870151  RH  082%=      5-min Rain = 0
KSLS 250810Z 20012KT 19/15 A2995 RMK A01 T01870151  RH  081%=      5-min Rain = 0
KSLS 250815Z 21012KT 19/15 A2995 RMK A01 T01870151  RH  081%=      5-min Rain = 0
KSLS 250820Z 21012KT 19/15 A2995 RMK A01 T01870150  RH  081%=      5-min Rain = 0
KSLS 250825Z 21011KT 19/15 A2995 RMK A01 T01870149  RH  080%=      5-min Rain = 0
KSLS 250830Z 20012KT 19/15 A2995 RMK A01 T01880149  RH  080%=      5-min Rain = 0
KSLS 250835Z 21011KT 19/15 A2995 RMK A01 T01880149  RH  080%=      5-min Rain = 0
KSLS 250840Z 21011KT 19/15 A2995 RMK A01 T01870149  RH  080%=      5-min Rain = 0
KSLS 250845Z 21012KT 19/15 A2995 RMK A01 T01870148  RH  080%=      5-min Rain = 0
KSLS 250850Z 21013G19KT 19/15 A2995 RMK A01 T01880146  RH  078%=      5-min Rain = 0
KSLS 250855Z 21014KT 19/15 A2995 RMK A01 T01890145  RH  077%=      5-min Rain = 0
KSLS 250900Z 20015KT 19/14 A2995 RMK A01 T01890144  RH  077%=      5-min Rain = 0
KSLS 250905Z 20015KT 19/14 A2995 RMK A01 T01880142  RH  077%=      5-min Rain = 0
KSLS 250910Z 21015KT 19/14 A2995 RMK A01 T01870141  RH  076%=      5-min Rain = 0
KSLS 250915Z 21015KT 19/14 A2995 RMK A01 T01860141  RH  076%=      5-min Rain = 0
KSLS 250920Z 21014KT 18/14 A2995 RMK A01 T01840140  RH  077%=      5-min Rain = 0
KSLS 250925Z 21014KT 18/14 A2995 RMK A01 T01840140  RH  077%=      5-min Rain = 0
KSLS 250930Z 21013KT 18/14 A2996 RMK A01 T01820141  RH  079%=      5-min Rain = 0
KSLS 250935Z 21013KT 18/14 A2996 RMK A01 T01820141  RH  079%=      5-min Rain = 0
KSLS 250940Z 21013KT 18/14 A2996 RMK A01 T01830142  RH  079%=      5-min Rain = 0
KSLS 250945Z 21013KT 18/14 A2996 RMK A01 T01820142  RH  079%=      5-min Rain = 0
KSLS 250950Z 21012KT 18/14 A2996 RMK A01 T01810143  RH  080%=      5-min Rain = 0
KSLS 250955Z 21012KT 18/14 A2997 RMK A01 T01800144  RH  081%=      5-min Rain = 0
KSLS 251000Z 21011KT 18/14 A2997 RMK A01 T01790144  RH  082%=      5-min Rain = 0
KSLS 251005Z 21010KT 18/15 A2997 RMK A01 T01780145  RH  083%=      5-min Rain = 0
KSLS 251010Z 21010KT 18/15 A2997 RMK A01 T01760145  RH  084%=      5-min Rain = 0
KSLS 251015Z 21009KT 18/15 A2997 RMK A01 T01760146  RH  084%=      5-min Rain = 0
KSLS 251020Z 21010KT 18/15 A2997 RMK A01 T01760146  RH  084%=      5-min Rain = 0
KSLS 251025Z 21011KT 18/15 A2997 RMK A01 T01780145  RH  083%=      5-min Rain = 0
KSLS 251030Z 21011KT 18/14 A2997 RMK A01 T01800144  RH  081%=      5-min Rain = 0
KSLS 251035Z 21011KT 18/14 A2997 RMK A01 T01800144  RH  081%=      5-min Rain = 0
KSLS 251040Z 21011KT 18/14 A2998 RMK A01 T01800143  RH  081%=      5-min Rain = 0
KSLS 251045Z 21011KT 18/14 A2998 RMK A01 T01810143  RH  080%=      5-min Rain = 0
KSLS 251050Z 21011KT 18/14 A2998 RMK A01 T01810143  RH  080%=      5-min Rain = 0
KSLS 251055Z 22011KT 18/14 A2998 RMK A01 T01810142  RH  080%=      5-min Rain = 0
KSLS 251100Z 22011KT 18/14 A2998 RMK A01 T01820142  RH  079%=      5-min Rain = 0
KSLS 251105Z 21010KT 18/14 A2998 RMK A01 T01820142  RH  079%=      5-min Rain = 0
KSLS 251110Z 21009KT 18/14 A2999 RMK A01 T01810142  RH  080%=      5-min Rain = 0
KSLS 251115Z 21009KT 18/14 A2999 RMK A01 T01810142  RH  079%=      5-min Rain = 0
KSLS 251120Z 22008KT 18/14 A2999 RMK A01 T01800142  RH  080%=      5-min Rain = 0
KSLS 251125Z 22007KT 18/14 A30 RMK A01 T01790142  RH  081%=      5-min Rain = 0
KSLS 251130Z 22006KT 18/14 A30 RMK A01 T01770143  RH  082%=      5-min Rain = 0
KSLS 251135Z 22007KT 18/14 A30 RMK A01 T01770142  RH  082%=      5-min Rain = 0
KSLS 251140Z 23006KT 18/14 A30 RMK A01 T01760142  RH  082%=      5-min Rain = 0
KSLS 251145Z 23007KT 18/14 A30 RMK A01 T01760142  RH  082%=      5-min Rain = 0
KSLS 251150Z 23006KT 18/14 A30 RMK A01 T01770142  RH  082%=      5-min Rain = 0
KSLS 251155Z 22005KT 18/14 A30 RMK A01 T01760142  RH  082%=      5-min Rain = 0
KSLS 251200Z 22004KT 18/14 A3001 RMK A01 T01770143  RH  082%=      5-min Rain = 0
KSLS 251205Z 23004KT 18/14 A3001 RMK A01 T01780143  RH  082%=      5-min Rain = 0
KSLS 251210Z 22004KT 18/14 A3001 RMK A01 T01800144  RH  081%=      5-min Rain = 0
KSLS 251215Z 23006KT 18/14 A3001 RMK A01 T01810144  RH  081%=      5-min Rain = 0
KSLS 251220Z 23006KT 18/15 A3001 RMK A01 T01830145  RH  080%=      5-min Rain = 0
KSLS 251225Z 23007KT 19/15 A3001 RMK A01 T01850145  RH  079%=      5-min Rain = 0
KSLS 251230Z 23009KT 19/14 A3001 RMK A01 T01870144  RH  078%=      5-min Rain = 0
KSLS 251235Z 23009KT 19/15 A3001 RMK A01 T01880145  RH  077%=      5-min Rain = 0
KSLS 251240Z 23009KT 19/15 A3002 RMK A01 T01900145  RH  077%=      5-min Rain = 0
KSLS 251245Z 23009G14KT 19/15 A3001 RMK A01 T01920146  RH  076%=      5-min Rain = 0
KSLS 251250Z 23010KT 19/15 A3001 RMK A01 T01930146  RH  075%=      5-min Rain = 0
KSLS 251255Z 23009KT 20/15 A3001 RMK A01 T01960148  RH  075%=      5-min Rain = 0
KSLS 251300Z 23010KT 20/15 A3001 RMK A01 T01980148  RH  075%=      5-min Rain = 0
KSLS 251305Z 23010KT 20/15 A3002 RMK A01 T01990149  RH  075%=      5-min Rain = 0
KSLS 251310Z 23011KT 20/15 A3002 RMK A01 T02000149  RH  074%=      5-min Rain = 0
KSLS 251315Z 23011KT 20/15 A3002 RMK A01 T02020150  RH  074%=      5-min Rain = 0
KSLS 251320Z 23011KT 20/15 A3002 RMK A01 T02040151  RH  074%=      5-min Rain = 0
KSLS 251325Z 23011KT 21/15 A3002 RMK A01 T02050151  RH  073%=      5-min Rain = 0
KSLS 251330Z 23012KT 21/15 A3002 RMK A01 T02070153  RH  073%=      5-min Rain = 0
KSLS 251335Z 23011KT 21/15 A3002 RMK A01 T02090154  RH  072%=      5-min Rain = 0
KSLS 251340Z 23013KT 21/16 A3002 RMK A01 T02110156  RH  072%=      5-min Rain = 0
KSLS 251345Z 22014G19KT 21/16 A3002 RMK A01 T02120156  RH  072%=      5-min Rain = 0
KSLS 251350Z 23012KT 22/16 A3002 RMK A01 T02150161  RH  073%=      5-min Rain = 0
KSLS 251355Z 23012KT 22/16 A3003 RMK A01 T02170163  RH  073%=      5-min Rain = 0
KSLS 251400Z 23013G19KT 22/17 A3003 RMK A01 T02190166  RH  073%=      5-min Rain = 0
KSLS 251405Z 23013G21KT 22/17 A3003 RMK A01 T02220168  RH  073%=      5-min Rain = 0
KSLS 251410Z 23014G19KT 22/17 A3003 RMK A01 T02240169  RH  073%=      5-min Rain = 0
KSLS 251415Z 23015G21KT 23/17 A3003 RMK A01 T02260171  RH  073%=      5-min Rain = 0
KSLS 251420Z 24013G18KT 23/17 A3003 RMK A01 T02290174  RH  073%=      5-min Rain = 0
KSLS 251425Z 24014KT 23/17 A3003 RMK A01 T02300174  RH  072%=      5-min Rain = 0
KSLS 251430Z 24014KT 23/17 A3003 RMK A01 T02310174  RH  072%=      5-min Rain = 0
KSLS 251435Z 24015KT 23/18 A3003 RMK A01 T02340175  RH  072%=      5-min Rain = 0
KSLS 251440Z 24015KT 24/18 A3003 RMK A01 T02360177  RH  071%=      5-min Rain = 0
KSLS 251445Z 23014G19KT 24/18 A3003 RMK A01 T02400180  RH  071%=      5-min Rain = 0
KSLS 251450Z 23015G21KT 24/18 A3003 RMK A01 T02410180  RH  070%=      5-min Rain = 0
KSLS 251455Z 23016G21KT 24/18 A3003 RMK A01 T02430178  RH  069%=      5-min Rain = 0
KSLS 251500Z 23016KT 24/18 A3002 RMK A01 T02440177  RH  068%=      5-min Rain = 0
KSLS 251505Z 23014KT 25/18 A3003 RMK A01 T02470180  RH  068%=      5-min Rain = 0
KSLS 251510Z 23013G18KT 25/18 A3003 RMK A01 T02480181  RH  068%=      5-min Rain = 0
KSLS 251515Z 23012KT 25/18 A3003 RMK A01 T02510181  RH  067%=      5-min Rain = 0
KSLS 251520Z 22013KT 25/18 A3003 RMK A01 T02510178  RH  066%=      5-min Rain = 0
KSLS 251525Z 22013KT 25/18 A3003 RMK A01 T02500177  RH  065%=      5-min Rain = 0
KSLS 251530Z 23013KT 25/18 A3003 RMK A01 T02530180  RH  066%=      5-min Rain = 0
KSLS 251535Z 23013KT 25/18 A3003 RMK A01 T02540179  RH  065%=      5-min Rain = 0
KSLS 251540Z 23012KT 26/18 A3003 RMK A01 T02570182  RH  065%=      5-min Rain = 0
KSLS 251545Z 23012KT 26/18 A3003 RMK A01 T02580181  RH  064%=      5-min Rain = 0
KSLS 251550Z 23010KT 26/18 A3003 RMK A01 T02630183  RH  063%=      5-min Rain = 0
KSLS 251555Z 22011KT 26/18 A3003 RMK A01 T02630182  RH  062%=      5-min Rain = 0
KSLS 251600Z 21011G16KT 26/18 A3003 RMK A01 T02630182  RH  062%=      5-min Rain = 0
KSLS 251605Z 21012KT 27/18 A3003 RMK A01 T02650182  RH  062%=      5-min Rain = 0
KSLS 251610Z 22010KT 27/18 A3002 RMK A01 T02670182  RH  061%=      5-min Rain = 0
KSLS 251615Z 21012KT 27/18 A3003 RMK A01 T02680181  RH  061%=      5-min Rain = 0
KSLS 251620Z 21011KT 27/18 A3003 RMK A01 T02680181  RH  060%=      5-min Rain = 0
KSLS 251625Z 21011KT 27/18 A3003 RMK A01 T02690182  RH  060%=      5-min Rain = 0
KSLS 251630Z 21010KT 27/18 A3003 RMK A01 T02700184  RH  061%=      5-min Rain = 0
KSLS 251635Z 20010KT 27/19 A3003 RMK A01 T02690187  RH  062%=      5-min Rain = 0
KSLS 251640Z 20009KT 27/19 A3003 RMK A01 T02710187  RH  061%=      5-min Rain = 0
KSLS 251645Z 19009KT 27/19 A3003 RMK A01 T02700187  RH  062%=      5-min Rain = 0
KSLS 251650Z 19009KT 27/19 A3003 RMK A01 T02730189  RH  062%=      5-min Rain = 0
KSLS 251655Z 20008KT 27/19 A3003 RMK A01 T02740189  RH  061%=      5-min Rain = 0
KSLS 251700Z 19008KT 27/19 A3003 RMK A01 T02730186  RH  061%=      5-min Rain = 0
KSLS 251705Z 20007KT 28/19 A3003 RMK A01 T02770190  RH  061%=      5-min Rain = 0
KSLS 251710Z 20006KT 28/19 A3003 RMK A01 T02780185  RH  059%=      5-min Rain = 0
KSLS 251715Z 19006KT 28/19 A3003 RMK A01 T02790188  RH  059%=      5-min Rain = 0
KSLS 251720Z 19006KT 28/19 A3003 RMK A01 T02800187  RH  058%=      5-min Rain = 0
KSLS 251725Z 19007KT 28/19 A3003 RMK A01 T02830188  RH  058%=      5-min Rain = 0
KSLS 251730Z 17006KT 28/19 A3002 RMK A01 T02830187  RH  057%=      5-min Rain = 0
KSLS 251735Z 19005KT 29/19 A3002 RMK A01 T02850185  RH  056%=      5-min Rain = 0
KSLS 251740Z 18006KT 29/18 A3002 RMK A01 T02860183  RH  055%=      5-min Rain = 0
KSLS 251745Z 17007KT 29/19 A3002 RMK A01 T02900186  RH  055%=      5-min Rain = 0
KSLS 251750Z 18006KT 29/19 A3002 RMK A01 T02930188  RH  055%=      5-min Rain = 0
KSLS 251755Z 18005KT 29/19 A3002 RMK A01 T02930186  RH  054%=      5-min Rain = 0
KSLS 251800Z 18007KT 30/19 A3002 RMK A01 T02960189  RH  054%=      5-min Rain = 0
KSLS 251805Z 17007KT 30/18 A3002 RMK A01 T02960184  RH  053%=      5-min Rain = 0
KSLS 251810Z 17005KT 30/18 A3002 RMK A01 T02960181  RH  051%=      5-min Rain = 0
KSLS 251815Z 18007KT 30/19 A3002 RMK A01 T03010187  RH  052%=      5-min Rain = 0
KSLS 251820Z 16005KT 30/18 A3002 RMK A01 T03010181  RH  050%=      5-min Rain = 0
KSLS 251825Z 17008KT 30/18 A3002 RMK A01 T03030180  RH  049%=      5-min Rain = 0
KSLS 251830Z 16005KT 31/18 A3002 RMK A01 T03060178  RH  048%=      5-min Rain = 0
KSLS 251835Z 17008KT 31/18 A3002 RMK A01 T03080179  RH  048%=      5-min Rain = 0
KSLS 251840Z 16007KT 31/18 A3002 RMK A01 T03080178  RH  047%=      5-min Rain = 0
KSLS 251845Z 16009KT 31/18 A3002 RMK A01 T03110175  RH  045%=      5-min Rain = 0
KSLS 251850Z 17008KT 31/17 A3002 RMK A01 T03140174  RH  044%=      5-min Rain = 0
KSLS 251855Z 18009KT 32/17 A3001 RMK A01 T03170173  RH  043%=      5-min Rain = 0
KSLS 251900Z 17007G14KT 32/17 A3001 RMK A01 T03160169  RH  042%=      5-min Rain = 0
KSLS 251905Z 17008G14KT 32/17 A3001 RMK A01 T03200166  RH  041%=      5-min Rain = 0
KSLS 251910Z 16007KT 32/16 A3001 RMK A01 T03210162  RH  039%=      5-min Rain = 0
KSLS 251915Z 16009G15KT 32/17 A3001 RMK A01 T03220166  RH  040%=      5-min Rain = 0
KSLS 251920Z 16013G18KT 32/17 A3001 RMK A01 T03200170  RH  042%=      5-min Rain = 0
KSLS 251925Z 15009KT 32/17 A3001 RMK A01 T03180166  RH  041%=      5-min Rain = 0
KSLS 251930Z 14011G16KT 32/17 A3001 RMK A01 T03210168  RH  041%=      5-min Rain = 0
KSLS 251935Z 15012G17KT 32/17 A30 RMK A01 T03230174  RH  042%=      5-min Rain = 0
KSLS 251940Z 14011G18KT 32/17 A30 RMK A01 T03230170  RH  041%=      5-min Rain = 0
KSLS 251945Z 14012G17KT 33/17 A30 RMK A01 T03250171  RH  041%=      5-min Rain = 0
KSLS 251950Z 17013G19KT 32/17 A30 RMK A01 T03220169  RH  041%=      5-min Rain = 0
KSLS 251955Z 15011G18KT 32/16 A30 RMK A01 T03220164  RH  040%=      5-min Rain = 0
KSLS 252000Z 15014G20KT 32/17 A30 RMK A01 T03220174  RH  042%=      5-min Rain = 0
KSLS 252005Z 15014KT 32/18 A30 RMK A01 T03220175  RH  043%=      5-min Rain = 0
KSLS 252010Z 16015KT 32/17 A30 RMK A01 T03200172  RH  042%=      5-min Rain = 0
KSLS 252015Z 15015KT 32/17 A30 RMK A01 T03190173  RH  043%=      5-min Rain = 0
KSLS 252020Z 14014G21KT 32/17 A2999 RMK A01 T03200173  RH  043%=      5-min Rain = 0
KSLS 252025Z 16015G20KT 32/17 A2999 RMK A01 T03190174  RH  043%=      5-min Rain = 0
KSLS 252030Z 15014G19KT 32/17 A2999 RMK A01 T03190174  RH  043%=      5-min Rain = 0
KSLS 252035Z 14014KT 32/17 A2999 RMK A01 T03210173  RH  042%=      5-min Rain = 0
KSLS 252040Z 15015KT 32/17 A2999 RMK A01 T03220168  RH  041%=      5-min Rain = 0
KSLS 252045Z 15014G22KT 32/17 A2999 RMK A01 T03220169  RH  041%=      5-min Rain = 0
KSLS 252050Z 14014G20KT 32/16 A2999 RMK A01 T03220163  RH  039%=      5-min Rain = 0
KSLS 252055Z 15013G18KT 32/16 A2999 RMK A01 T03230164  RH  039%=      5-min Rain = 0
KSLS 252100Z 15015KT 32/16 A2999 RMK A01 T03230163  RH  039%=      5-min Rain = 0
KSLS 252105Z 14015G20KT 32/17 A2999 RMK A01 T03230165  RH  040%=      5-min Rain = 0
KSLS 252110Z 16014G20KT 32/17 A2998 RMK A01 T03230166  RH  040%=      5-min Rain = 0
KSLS 252115Z 14013G20KT 32/16 A2998 RMK A01 T03230163  RH  039%=      5-min Rain = 0
KSLS 252120Z 14015G21KT 32/16 A2998 RMK A01 T03230158  RH  038%=      5-min Rain = 0
KSLS 252125Z 14014KT 32/16 A2998 RMK A01 T03230162  RH  039%=      5-min Rain = 0
KSLS 252130Z 15012G19KT 32/16 A2998 RMK A01 T03240162  RH  039%=      5-min Rain = 0
KSLS 252135Z 14015G20KT 32/16 A2998 RMK A01 T03240157  RH  037%=      5-min Rain = 0
KSLS 252140Z 14014G19KT 32/16 A2997 RMK A01 T03240155  RH  037%=      5-min Rain = 0
KSLS 252145Z 15014G22KT 32/15 A2997 RMK A01 T03240153  RH  036%=      5-min Rain = 0
KSLS 252150Z 15015G20KT 32/15 A2997 RMK A01 T03240152  RH  036%=      5-min Rain = 0
KSLS 252155Z 15016G21KT 32/15 A2997 RMK A01 T03240151  RH  036%=      5-min Rain = 0
KSLS 252200Z 15015KT 33/15 A2997 RMK A01 T03250149  RH  035%=      5-min Rain = 0
KSLS 252205Z 15012KT 33/16 A2997 RMK A01 T03260155  RH  037%=      5-min Rain = 0
KSLS 252210Z 15014G20KT 33/15 A2996 RMK A01 T03260152  RH  036%=      5-min Rain = 0
KSLS 252215Z 15014G20KT 33/15 A2996 RMK A01 T03250150  RH  036%=      5-min Rain = 0
KSLS 252220Z 15015G20KT 33/15 A2996 RMK A01 T03260152  RH  036%=      5-min Rain = 0
KSLS 252225Z 15016KT 33/15 A2996 RMK A01 T03250152  RH  036%=      5-min Rain = 0
KSLS 252230Z 15016G21KT 33/15 A2995 RMK A01 T03250151  RH  036%=      5-min Rain = 0
KSLS 252235Z 14015G20KT 32/15 A2996 RMK A01 T03190147  RH  036%=      5-min Rain = 0
KSLS 252240Z 15015G22KT 31/15 A2995 RMK A01 T03100149  RH  039%=      5-min Rain = 0
KSLS 252245Z 16015KT 31/15 A2995 RMK A01 T03070153  RH  040%=      5-min Rain = 0
KSLS 252250Z 16017G22KT 31/15 A2995 RMK A01 T03060154  RH  041%=      5-min Rain = 0
KSLS 252255Z 16016KT 31/15 A2995 RMK A01 T03050154  RH  041%=      5-min Rain = 0
KSLS 252300Z 16016KT 30/16 A2996 RMK A01 T03040156  RH  042%=      5-min Rain = 0
KSLS 252305Z 16015G20KT 30/16 A2995 RMK A01 T03030157  RH  042%=      5-min Rain = 0
KSLS 252310Z 15015KT 30/16 A2995 RMK A01 T03030156  RH  042%=      5-min Rain = 0
KSLS 252315Z 14017G22KT 30/16 A2995 RMK A01 T03030155  RH  042%=      5-min Rain = 0
KSLS 252320Z 15016KT 30/16 A2995 RMK A01 T03030156  RH  042%=      5-min Rain = 0
KSLS 252325Z 14015KT 30/16 A2995 RMK A01 T03040158  RH  042%=      5-min Rain = 0
KSLS 252330Z 14017KT 31/16 A2994 RMK A01 T03050160  RH  043%=      5-min Rain = 0
KSLS 252335Z 15016KT 30/16 A2994 RMK A01 T03030161  RH  043%=      5-min Rain = 0
KSLS 252340Z 15015G20KT 30/16 A2994 RMK A01 T03020158  RH  043%=      5-min Rain = 0
KSLS 252345Z 15016KT 30/16 A2994 RMK A01 T03020160  RH  043%=      5-min Rain = 0
KSLS 252350Z 15017G22KT 31/16 A2994 RMK A01 T03070163  RH  043%=      5-min Rain = 0
KSLS 252355Z 15018G23KT 31/16 A2993 RMK A01 T03090163  RH  042%=      5-min Rain = 0
KSLS 260000Z 15020KT 31/16 A2993 RMK A01 T03090158  RH  041%=      5-min Rain = 0
KSLS 260005Z 16019KT 31/15 A2993 RMK A01 T03080154  RH  040%=      5-min Rain = 0
KSLS 260010Z 15017G24KT 31/16 A2993 RMK A01 T03080161  RH  042%=      5-min Rain = 0
KSLS 260015Z 14019G25KT 31/16 A2994 RMK A01 T03060159  RH  042%=      5-min Rain = 0
KSLS 260020Z 14018KT 31/16 A2994 RMK A01 T03050158  RH  042%=      5-min Rain = 0
KSLS 260025Z 14018KT 30/16 A2995 RMK A01 T03040156  RH  042%=      5-min Rain = 0
KSLS 260030Z 15019KT 30/16 A2995 RMK A01 T03040155  RH  042%=      5-min Rain = 0
KSLS 260035Z 14018G24KT 30/16 A2995 RMK A01 T03020156  RH  042%=      5-min Rain = 0
KSLS 260040Z 14020G25KT 30/15 A2995 RMK A01 T03010153  RH  042%=      5-min Rain = 0
KSLS 260045Z 14018G23KT 30/15 A2995 RMK A01 T03010154  RH  042%=      5-min Rain = 0
KSLS 260050Z 13016G23KT 30/15 A2996 RMK A01 T03000152  RH  042%=      5-min Rain = 0
KSLS 260055Z 14017G23KT 30/15 A2996 RMK A01 T02990152  RH  042%=      5-min Rain = 0
KSLS 260100Z 14016G22KT 30/15 A2996 RMK A01 T02980151  RH  042%=      5-min Rain = 0
KSLS 260105Z 13016G21KT 30/15 A2997 RMK A01 T02970152  RH  042%=      5-min Rain = 0
KSLS 260110Z 13014G20KT 29/15 A2997 RMK A01 T02940151  RH  043%=      5-min Rain = 0
KSLS 260115Z 13015G22KT 29/15 A2997 RMK A01 T02930150  RH  043%=      5-min Rain = 0
KSLS 260120Z 13015G22KT 29/15 A2997 RMK A01 T02910150  RH  043%=      5-min Rain = 0
KSLS 260125Z 13015G21KT 29/15 A2997 RMK A01 T02890152  RH  044%=      5-min Rain = 0
KSLS 260130Z 13014G20KT 29/15 A2998 RMK A01 T02880150  RH  044%=      5-min Rain = 0
KSLS 260135Z 13015G21KT 29/15 A2998 RMK A01 T02850152  RH  045%=      5-min Rain = 0
KSLS 260140Z 13015KT 28/15 A2998 RMK A01 T02840154  RH  046%=      5-min Rain = 0
KSLS 260145Z 13015G21KT 28/16 A2998 RMK A01 T02830155  RH  047%=      5-min Rain = 0
KSLS 260150Z 13014G19KT 28/15 A2998 RMK A01 T02810154  RH  047%=      5-min Rain = 0
KSLS 260155Z 13014G19KT 28/15 A2999 RMK A01 T02780154  RH  048%=      5-min Rain = 0
KSLS 260200Z 14015G20KT 28/15 A2999 RMK A01 T02770154  RH  048%=      5-min Rain = 0
KSLS 260205Z 14014G20KT 28/16 A2999 RMK A01 T02750155  RH  049%=      5-min Rain = 0
KSLS 260210Z 15015KT 27/16 A2999 RMK A01 T02740156  RH  050%=      5-min Rain = 0
KSLS 260215Z 15015KT 27/16 A30 RMK A01 T02720157  RH  051%=      5-min Rain = 0
KSLS 260220Z 15016G22KT 27/16 A30 RMK A01 T02700156  RH  051%=      5-min Rain = 0
KSLS 260225Z 15016KT 27/16 A30 RMK A01 T02690156  RH  051%=      5-min Rain = 0
KSLS 260230Z 14016G21KT 27/16 A30 RMK A01 T02680157  RH  052%=      5-min Rain = 0
KSLS 260235Z 14015G21KT 27/16 A3001 RMK A01 T02670157  RH  052%=      5-min Rain = 0
KSLS 260240Z 14015KT 27/16 A3001 RMK A01 T02660156  RH  052%=      5-min Rain = 0
KSLS 260245Z 13015G20KT 27/16 A3001 RMK A01 T02650157  RH  053%=      5-min Rain = 0
KSLS 260250Z 13015G20KT 27/16 A3002 RMK A01 T02650158  RH  053%=      5-min Rain = 0
KSLS 260255Z 13014G19KT 26/16 A3002 RMK A01 T02640159  RH  054%=      5-min Rain = 0
KSLS 260300Z 12013KT 26/16 A3002 RMK A01 T02640160  RH  054%=      5-min Rain = 0
KSLS 260305Z 12012KT 26/16 A3003 RMK A01 T02630161  RH  054%=      5-min Rain = 0
KSLS 260310Z 12010KT 26/16 A3004 RMK A01 T02620162  RH  055%=      5-min Rain = 0
KSLS 260315Z 12008G13KT 26/16 A3005 RMK A01 T02600163  RH  056%=      5-min Rain = 0
KSLS 260320Z 11008KT 26/17 A3006 RMK A01 T02590166  RH  058%=      5-min Rain = 0
KSLS 260325Z 08007KT 26/17 A3007 RMK A01 T02560167  RH  059%=      5-min Rain = 0
KSLS 260330Z 05007KT 26/17 A3008 RMK A01 T02550166  RH  059%=      5-min Rain = 0
KSLS 260335Z 04008KT 25/17 A301 RMK A01 T02520167  RH  060%=      5-min Rain = 0
KSLS 260340Z 03008KT 25/17 A3011 RMK A01 T02500168  RH  061%=      5-min Rain = 0
KSLS 260345Z 05008KT 25/17 A3012 RMK A01 T02520165  RH  060%=      5-min Rain = 0
KSLS 260350Z 07007KT 25/17 A3012 RMK A01 T02540165  RH  059%=      5-min Rain = 0
KSLS 260355Z 07010G16KT 26/16 A3011 RMK A01 T02560162  RH  057%=      5-min Rain = 0
KSLS 260400Z 07011G18KT 26/16 A301 RMK A01 T02580161  RH  056%=      5-min Rain = 0
KSLS 260405Z 07011G16KT 26/16 A3011 RMK A01 T02550161  RH  057%=      5-min Rain = 0
KSLS 260410Z 07010KT 25/16 A3011 RMK A01 T02540164  RH  059%=      5-min Rain = 0
KSLS 260415Z 07012G19KT 25/17 A3012 RMK A01 T02540165  RH  059%=      5-min Rain = 0
KSLS 260420Z 07012G17KT 25/17 A3012 RMK A01 T02540166  RH  059%=      5-min Rain = 0
KSLS 260425Z 07011G16KT 26/17 A3013 RMK A01 T02550166  RH  059%=      5-min Rain = 0
KSLS 260430Z 07011G17KT 26/17 A3013 RMK A01 T02550167  RH  059%=      5-min Rain = 0
KSLS 260435Z 07011KT 26/17 A3013 RMK A01 T02560167  RH  059%=      5-min Rain = 0
KSLS 260440Z 08011KT 26/17 A3013 RMK A01 T02550167  RH  059%=      5-min Rain = 0
KSLS 260445Z 08009KT 25/17 A3013 RMK A01 T02540167  RH  060%=      5-min Rain = 0
KSLS 260450Z 09009KT 25/17 A3013 RMK A01 T02530167  RH  060%=      5-min Rain = 0
KSLS 260455Z 10009KT 25/17 A3013 RMK A01 T02520169  RH  061%=      5-min Rain = 0

Page generated in 0.0281 seconds.